Pagina principale
METAR-TAF:

METAR-TAF

Aeroporti :

Gombe Lawanti International Airport

Gombe, Nigeria

latitudine: 10-18-19N, longitudine: 10-54-31E, altezza: 505 m

METAR: mancante

Ora: 00:34 (23:34 UTC)

Previsione

Il bollettino è stato emesso 34 minuti fa, alle 23:00 UTC
Previsione valida dal 09 alle 00 UTC al 10 alle 06 UTC
Vento 8 kt da est/nord-est
Visibilità 10 km o più
nessuna nube inferiore a 1500 m e nessun cumulonembo

TAF: DNGO 082300Z 0900/1006 07008KT CAVOK

Osservazioni e previsioni meteorologiche di più di 4000 aeroporti (messaggi METAR e TAF).

Le stazioni disponibili sono rappresentate dai dischi gialli e rossi sulla carta.

Puntare il mouse per vedere il nome della stazione.

Clicca sopra per visualizzare le osservazioni e previsioni meteorologiche.

Per cambiare la mappa : fare clic sui pulsanti verdi con una croce nera per ingrandire, il pulsante verde con un trattino per diminuire, o sulla freccia verde per le mappe adiacenti.


METAR-TAF: